Weather observations for the past three days for
Eagle Pass - Maverick County Memorial International Airport
Imperial (Metric)
Date Time (cdt) Wind (mph) Vis. (mi.) Weather Sky Cond. Temperature (ºF) Relative Humidity Wind Chill (°F) Heat Index (°F) Pressure Precipitation (in)
Air Dwpt 6 hour altimeter (in) sea level (mb) 1 hr 3 hr 6 hr
Max. Min.
03 08:35 SE 9 5.00 Mostly Cloudy with Haze BKN018 82.4 77 84% 91 29.91 0.0
03 08:10 SE 8 5.00 Mostly Cloudy with Haze BKN019 80.6 75.2 84% 86 29.9 0.0
03 07:55 E 5 5.00 Partly Cloudy with Haze SCT020 80.6 75.2 84% 86 29.89 0.0
03 07:35 SE 5 5.00 Fair with Haze CLR 80.6 75.2 84% 86 29.88 0.0
03 07:10 SE 8 7.00 Fair CLR 80.6 75.2 84% 86 29.88 0.0
03 06:55 E 7 7.00 Fair CLR 80.6 73.4 79% 85 29.88 0.0
03 06:35 E 6 8.00 Fair CLR 80.6 71.6 74% 85 29.87 0.0
03 06:10 SE 8 8.00 Fair CLR 82.4 71.6 70% 87 29.87 0.0
03 05:50 E 7 8.00 Fair CLR 82.4 71.6 70% 87 29.86 0.0
03 05:35 SE 9 9.00 Fair CLR 84.2 71.6 66% 90 29.86 0.0
03 05:10 E 7 9.00 Fair CLR 84.2 68 58% 87 29.86 0.0
03 04:50 SE 9 G 17 9.00 Fair CLR 84.2 69.8 62% 88 29.86 0.0
03 04:30 SE 7 9.00 Fair CLR 84.2 68 58% 87 29.86 0.0
03 04:10 SE 9 G 16 9.00 Fair CLR 86 68 55% 89 29.86 0.0
03 03:50 SE 9 9.00 Fair CLR 86 69.8 59% 91 29.86 0.0
03 03:10 SE 8 9.00 Fair CLR 86 73.4 66% 93 29.86 0.0
03 02:50 E 8 9.00 Fair CLR 87.8 73.4 62% 96 29.86 0.0
03 02:30 E 8 9.00 Fair CLR 87.8 73.4 62% 96 29.86 0.0
03 02:10 E 9 9.00 Fair CLR 87.8 73.4 62% 96 29.86 0.0
03 01:55 E 8 10.00 Fair CLR 87.8 73.4 62% 96 29.86 0.0
03 01:35 SE 9 9.00 Fair CLR 89.6 71.6 55% 96 29.86 0.0
03 01:10 SE 9 G 15 10.00 Fair CLR 89.6 71.6 55% 96 29.86 0.0
03 00:55 SE 8 10.00 Fair CLR 89.6 69.8 52% 95 29.86 0.0
03 00:30 E 9 9.00 Fair CLR 89.6 68 49% 93 29.86 0.0
03 00:10 SE 10 10.00 Partly Cloudy SCT110 91.4 66.2 44% 94 29.85 0.0
02 23:50 E 10 G 18 9.00 Mostly Cloudy BKN110 91.4 64.4 41% 93 29.85 0.0
02 23:35 E 12 G 18 9.00 Partly Cloudy SCT110 93.2 62.6 36% 94 29.85 0.0
02 23:15 E 8 10.00 Mostly Cloudy BKN110 91.4 62.6 38% 92 29.85 0.0
02 22:55 E 8 10.00 Partly Cloudy SCT110 93.2 62.6 36% 94 29.84 0.0
02 22:35 E 8 9.00 Partly Cloudy SCT110 93.2 62.6 36% 94 29.84 0.0
02 22:15 E 8 9.00 Partly Cloudy SCT110 93.2 62.6 36% 94 29.83 0.0
02 21:55 E 8 9.00 Fair CLR 93.2 62.6 36% 94 29.82 0.0
02 21:35 E 8 9.00 Fair CLR 95 62.6 34% 96 29.82 0.0
02 21:10 E 6 9.00 Fair CLR 95 62.6 34% 96 29.81 0.0
02 20:55 E 7 10.00 Fair CLR 95 62.6 34% 96 29.8 0.0
02 20:35 E 7 8.00 Fair CLR 96.8 62.6 32% 98 29.8 0.0
02 20:10 E 8 7.00 Fair CLR 98.6 60.8 29% 99 29.8 0.0
02 19:55 E 7 8.00 Fair CLR 100.4 62.6 29% 102 29.79 0.0
02 19:35 E 8 G 14 7.00 Fair CLR 100.4 62.6 29% 102 29.79 0.0
02 19:10 SE 7 G 13 9.00 Fair CLR 102.2 62.6 27% 104 29.79 0.0
02 18:55 SE 9 8.00 Fair CLR 102.2 62.6 27% 104 29.79 0.0
02 18:30 E 10 8.00 A Few Clouds FEW090 104 62.6 26% 107 29.79 0.0
02 18:15 S 8 7.00 A Few Clouds FEW090 104 62.6 26% 107 29.8 0.0
02 17:50 Vrbl 6 G 14 7.00 Fair CLR 104 62.6 26% 107 29.8 0.0
02 17:35 E 12 G 17 8.00 Fair CLR 104 62.6 26% 107 29.8 0.0
02 17:15 NE 6 8.00 Fair CLR 102.2 62.6 27% 104 29.8 0.0
02 16:50 E 9 7.00 Fair CLR 105.8 62.6 25% 109 29.81 0.0
02 16:30 Vrbl 6 8.00 Fair CLR 105.8 62.6 25% 109 29.81 0.0
02 16:10 E 6 G 16 7.00 Fair CLR 104 62.6 26% 107 29.82 0.0
02 15:50 SE 10 7.00 Fair CLR 105.8 64.4 26% 110 29.83 0.0
02 15:35 NE 7 G 15 7.00 Fair CLR 104 62.6 26% 107 29.84 0.0
02 15:15 SE 9 7.00 Fair CLR 100.4 62.6 29% 102 29.85 0.0
02 14:50 S 8 8.00 Fair CLR 104 64.4 28% 108 29.86 0.0
02 14:30 E 6 G 14 8.00 A Few Clouds FEW070 102.2 64.4 29% 106 29.88 0.0
02 14:10 Vrbl 3 G 17 8.00 A Few Clouds FEW070 102.2 66.2 31% 107 29.89 0.0
02 13:55 Vrbl 5 G 15 7.00 Fair CLR 102.2 66.2 31% 107 29.9 0.0
02 13:35 SE 10 7.00 Fair CLR 100.4 68 35% 106 29.91 0.0
02 13:15 E 8 8.00 Fair CLR 98.6 71.6 42% 108 29.92 0.0
02 12:50 Calm 0.00 Fair CLR 96.8 73.4 47% 107 29.93 0.0
02 12:35 Vrbl 6 7.00 Fair CLR 96.8 73.4 47% 107 29.94 0.0
02 12:15 Vrbl 3 7.00 Fair CLR 95 73.4 50% 105 29.95 0.0
02 11:50 Vrbl 5 8.00 Fair CLR 93.2 75.2 56% 105 29.96 0.0
02 11:35 S 5 8.00 Fair CLR 91.4 75.2 59% 103 29.96 0.0
02 11:10 S 6 8.00 Fair CLR 89.6 75.2 63% 100 29.97 0.0
02 10:50 Vrbl 5 7.00 Fair CLR 87.8 75.2 66% 98 29.97 0.0
02 10:35 SE 6 G 14 7.00 Fair CLR 87.8 75.2 66% 98 29.97 0.0
02 10:10 SE 9 7.00 Fair CLR 87.8 75.2 66% 98 29.97 0.0
02 09:55 Vrbl 6 G 14 7.00 Fair CLR 86 75.2 70% 95 29.97 0.0
02 09:35 SE 9 7.00 Fair CLR 84.2 75.2 74% 92 29.97 0.0
02 09:10 E 8 8.00 Fair CLR 82.4 73.4 74% 88 29.96 0.0
02 08:50 E 8 7.00 Fair CLR 82.4 73.4 74% 88 29.97 0.0
02 08:30 E 7 7.00 Fair CLR 78.8 71.6 79% 82 29.96 0.0
02 08:10 E 7 7.00 Fair CLR 78.8 71.6 79% 82 29.96 0.0
02 07:50 NE 5 7.00 Fair CLR 77 71.6 83% 78 29.95 0.0
02 07:35 E 5 7.00 Fair CLR 77 71.6 83% 78 29.94 0.0
02 07:15 E 5 8.00 Fair CLR 77 71.6 83% 78 29.94 0.0
02 06:50 E 6 8.00 Fair CLR 78.8 71.6 79% 82 29.94 0.0
02 06:35 E 6 9.00 Fair CLR 78.8 71.6 79% 82 29.93 0.0
02 06:10 E 6 9.00 Fair CLR 80.6 71.6 74% 85 29.93 0.0
02 05:50 E 8 9.00 Fair CLR 80.6 71.6 74% 85 29.92 0.0
02 05:35 E 7 9.00 Fair CLR 80.6 71.6 74% 85 29.92 0.0
02 05:10 E 7 9.00 Fair CLR 82.4 71.6 70% 87 29.92 0.0
02 04:50 E 7 9.00 Fair CLR 82.4 71.6 70% 87 29.92 0.0
02 04:30 E 8 10.00 Fair CLR 82.4 71.6 70% 87 29.92 0.0
02 04:15 E 8 10.00 Fair CLR 84.2 71.6 66% 90 29.92 0.0
02 03:50 E 8 9.00 Fair CLR 84.2 71.6 66% 90 29.92 0.0
02 03:35 SE 8 9.00 Fair CLR 84.2 71.6 66% 90 29.92 0.0
02 03:10 SE 7 9.00 Fair CLR 86 71.6 62% 92 29.92 0.0
02 02:50 SE 9 9.00 Fair CLR 86 73.4 66% 93 29.92 0.0
02 02:30 SE 9 G 15 10.00 Fair CLR 86 73.4 66% 93 29.92 0.0
02 02:10 SE 9 9.00 Fair CLR 86 71.6 62% 92 29.92 0.0
02 01:50 E 7 9.00 Fair CLR 86 69.8 59% 91 29.92 0.0
02 01:35 E 8 9.00 Fair CLR 86 68 55% 89 29.92 0.0
02 01:15 E 6 8.00 Fair CLR 86 66.2 52% 88 29.92 0.0
02 00:55 E 7 8.00 Fair CLR 86 64.4 49% 87 29.91 0.0
02 00:35 E 6 9.00 Fair CLR 86 62.6 46% 87 29.91 0.0
02 00:10 E 9 9.00 Fair CLR 87.8 60.8 40% 88 29.91 0.0
01 23:55 E 10 9.00 Fair CLR 89.6 60.8 38% 90 29.91 0.0
01 23:35 E 10 9.00 Fair CLR 89.6 59 36% 89 29.91 0.0
01 23:10 E 9 9.00 Fair CLR 89.6 59 36% 89 29.9 0.0
01 22:55 E 8 9.00 Fair CLR 89.6 59 36% 89 29.9 0.0
01 22:35 E 8 9.00 Fair CLR 91.4 59 34% 91 29.9 0.0
01 22:10 E 8 8.00 Fair CLR 91.4 59 34% 91 29.89 0.0
01 21:55 E 8 9.00 Fair CLR 91.4 59 34% 91 29.88 0.0
01 21:35 E 7 8.00 Fair CLR 91.4 59 34% 91 29.87 0.0
01 21:10 E 6 9.00 Fair CLR 93.2 59 32% 93 29.86 0.0
01 20:50 E 7 9.00 Fair CLR 95 59 30% 94 29.85 0.0
01 20:35 E 8 9.00 Fair CLR 95 60.8 32% 95 29.85 0.0
01 20:10 E 9 7.00 Fair CLR 96.8 60.8 30% 97 29.84 0.0
01 19:55 E 7 7.00 Fair CLR 98.6 60.8 29% 99 29.84 0.0
01 19:30 E 8 7.00 Fair CLR 98.6 60.8 29% 99 29.84 0.0
01 19:10 E 9 G 15 7.00 Fair CLR 100.4 60.8 27% 101 29.84 0.0
01 18:55 E 12 7.00 Fair CLR 100.4 60.8 27% 101 29.83 0.0
01 18:30 E 7 G 18 7.00 Fair CLR 100.4 62.6 29% 102 29.83 0.0
01 18:10 E 9 7.00 Fair CLR 102.2 62.6 27% 104 29.83 0.0
01 17:55 E 13 6.00 A Few Clouds with Haze FEW085 102.2 62.6 27% 104 29.83 0.0
01 17:15 E 8 G 14 7.00 Fair CLR 102.2 62.6 27% 104 29.84 0.0
01 16:55 E 8 G 17 6.00 Fair with Haze CLR 100.4 64.4 31% 104 29.84 0.0
01 16:30 SE 12 G 21 6.00 Fair with Haze CLR 104 64.4 28% 108 29.85 0.0
01 16:15 E 8 G 18 6.00 Fair with Haze CLR 102.2 64.4 29% 106 29.85 0.0
01 15:55 Vrbl 7 G 17 6.00 A Few Clouds with Haze FEW075 102.2 66.2 31% 107 29.86 0.0
01 15:30 Vrbl 6 G 17 6.00 Fair with Haze CLR 100.4 66.2 33% 105 29.88 0.0
01 15:15 E 8 G 21 5.00 A Few Clouds with Haze FEW070 102.2 66.2 31% 107 29.88 0.0
01 14:55 E 9 6.00 Partly Cloudy with Haze SCT070 100.4 66.2 33% 105 29.9 0.0
01 14:35 E 9 G 16 6.00 A Few Clouds with Haze FEW070 100.4 66.2 33% 105 29.91 0.0
01 14:15 SE 10 G 17 6.00 Fair with Haze CLR 98.6 68 37% 104 29.92 0.0
01 13:55 E 9 G 16 6.00 Fair with Haze CLR 96.8 71.6 44% 105 29.93 0.0
01 13:35 Vrbl 5 G 13 6.00 Fair with Haze CLR 96.8 71.6 44% 105 29.94 0.0
01 13:15 SE 10 7.00 Fair CLR 95 71.6 47% 103 29.95 0.0
01 12:55 SE 5 G 15 6.00 Fair with Haze CLR 95 73.4 50% 105 29.96 0.0
01 12:35 E 8 G 15 6.00 Fair with Haze CLR 93.2 73.4 53% 103 29.96 0.0
01 12:15 SE 9 6.00 Fair with Haze CLR 91.4 73.4 56% 100 29.97 0.0
01 11:55 Vrbl 6 6.00 Fair with Haze CLR 89.6 75.2 63% 100 29.97 0.0
01 11:35 Vrbl 6 G 13 6.00 Fair with Haze CLR 89.6 75.2 63% 100 29.98 0.0
01 11:15 SE 9 6.00 Fair with Haze CLR 87.8 75.2 66% 98 29.99 0.0
01 10:55 Vrbl 6 G 13 7.00 A Few Clouds FEW024 86 75.2 70% 95 29.99 0.0
01 10:30 SE 8 6.00 A Few Clouds with Haze FEW022 86 75.2 70% 95 29.99 0.0
01 10:15 Vrbl 6 6.00 Partly Cloudy with Haze SCT020 86 75.2 70% 95 29.99 0.0
01 09:55 SE 8 6.00 Mostly Cloudy with Haze BKN020 84.2 75.2 74% 92 29.99 0.0
01 09:35 SE 8 7.00 Partly Cloudy SCT020 82.4 75.2 79% 89 29.99 0.0
01 09:10 E 8 5.00 Fair with Haze CLR 82.4 75.2 79% 89 29.99 0.0
01 08:55 E 10 5.00 Fair with Haze CLR 80.6 75.2 84% 86 29.99 0.0
01 08:35 E 10 5.00 Fair with Haze CLR 78.8 75.2 89% 82 29.98 0.0
01 08:15 E 6 5.00 Fair with Haze CLR 78.8 73.4 84% 82 29.98 0.0
01 07:55 E 7 5.00 Fair with Haze CLR 77 73.4 89% 78 29.97 0.0
01 07:35 E 6 5.00 Fair with Haze CLR 77 73.4 89% 78 29.97 0.0
01 07:10 E 8 7.00 Fair CLR 77 73.4 89% 78 29.96 0.0
01 06:55 E 7 7.00 Fair CLR 77 71.6 83% 78 29.95 0.0
01 06:35 E 8 7.00 Fair CLR 78.8 71.6 79% 82 29.95 0.0
01 06:15 E 8 7.00 Fair CLR 78.8 71.6 79% 82 29.95 0.0
01 05:55 E 7 7.00 Fair CLR 78.8 71.6 79% 82 29.94 0.0
01 05:35 E 10 7.00 Fair CLR 80.6 73.4 79% 85 29.94 0.0
01 05:15 E 10 6.00 Fair with Haze CLR 80.6 73.4 79% 85 29.94 0.0
01 04:55 E 9 7.00 Fair CLR 80.6 73.4 79% 85 29.94 0.0
01 04:35 E 7 7.00 Fair CLR 80.6 71.6 74% 85 29.93 0.0
01 04:15 E 8 7.00 Fair CLR 82.4 71.6 70% 87 29.93 0.0
01 03:55 E 12 G 17 7.00 Fair CLR 82.4 71.6 70% 87 29.93 0.0
01 03:35 E 12 G 18 7.00 Fair CLR 82.4 71.6 70% 87 29.94 0.0
01 03:15 E 12 7.00 Fair CLR 84.2 71.6 66% 90 29.94 0.0
01 02:55 SE 13 7.00 Fair CLR 84.2 71.6 66% 90 29.94 0.0
01 02:35 SE 13 G 18 7.00 Fair CLR 84.2 71.6 66% 90 29.93 0.0
01 02:15 SE 14 G 21 7.00 Fair CLR 86 71.6 62% 92 29.94 0.0
01 01:55 SE 16 7.00 Fair CLR 86 71.6 62% 92 29.94 0.0
01 01:35 SE 13 7.00 Fair CLR 86 69.8 59% 91 29.94 0.0
01 01:15 SE 12 G 20 7.00 Fair CLR 86 69.8 59% 91 29.94 0.0
01 00:55 SE 15 7.00 Fair CLR 87.8 69.8 55% 93 29.93 0.0
01 00:35 SE 15 7.00 Fair CLR 87.8 68 52% 91 29.93 0.0
01 00:15 SE 14 G 28 8.00 Fair CLR 89.6 69.8 52% 95 29.92 0.0
31 23:50 SE 16 G 29 8.00 Fair CLR 89.6 69.8 52% 95 29.91 0.0
31 23:35 SE 16 G 28 8.00 Fair CLR 89.6 68 49% 93 29.91 0.0
31 23:15 SE 15 G 26 7.00 Fair CLR 91.4 69.8 49% 97 29.9 0.0
31 22:55 E 18 G 24 7.00 Fair CLR 91.4 68 46% 96 29.88 0.0
31 22:35 E 14 G 22 8.00 Fair CLR 93.2 64.4 39% 95 29.88 0.0
31 22:15 E 12 9.00 Fair CLR 93.2 62.6 36% 94 29.87 0.0
31 21:55 E 10 G 17 8.00 Fair CLR 93.2 62.6 36% 94 29.86 0.0
31 21:15 E 10 8.00 Fair CLR 93.2 62.6 36% 94 29.84 0.0
31 20:55 E 9 8.00 Fair CLR 95 62.6 34% 96 29.84 0.0
31 20:35 E 8 7.00 Fair CLR 95 62.6 34% 96 29.84 0.0
31 20:10 E 8 6.00 Fair with Haze CLR 96.8 62.6 32% 98 29.84 0.0
31 19:55 E 9 G 16 7.00 Fair CLR 98.6 62.6 31% 100 29.84 0.0
31 19:35 E 12 6.00 Fair with Haze CLR 98.6 62.6 31% 100 29.84 0.0
31 19:15 E 10 G 18 6.00 A Few Clouds with Haze FEW100 98.6 64.4 33% 101 29.83 0.0
31 18:35 SE 13 G 20 6.00 Fair with Haze CLR 100.4 64.4 31% 104 29.83 0.0
31 18:15 SE 12 G 17 6.00 Fair with Haze CLR 102.2 64.4 29% 106 29.83 0.0
31 17:55 SE 12 G 22 6.00 A Few Clouds with Haze FEW080 102.2 64.4 29% 106 29.82 0.0
31 17:35 E 9 G 16 6.00 A Few Clouds with Haze FEW075 102.2 66.2 31% 107 29.83 0.0
31 17:15 E 9 G 16 6.00 A Few Clouds with Haze FEW075 FEW085 102.2 66.2 31% 107 29.83 0.0
31 16:55 E 15 6.00 A Few Clouds with Haze FEW070 102.2 66.2 31% 107 29.83 0.0
31 16:35 E 14 6.00 Fair with Haze CLR 100.4 68 35% 106 29.84 0.0
31 16:15 SE 15 G 23 5.00 A Few Clouds with Haze FEW065 100.4 69.8 37% 108 29.86 0.0
31 15:55 E 13 G 18 5.00 Partly Cloudy with Haze SCT065 98.6 69.8 39% 106 29.87 0.0
31 15:35 SE 9 G 21 6.00 Fair with Haze CLR 100.4 69.8 37% 108 29.88 0.0
31 15:15 E 10 G 18 5.00 Fair with Haze CLR 100.4 69.8 37% 108 29.89 0.0
31 14:55 E 10 G 18 5.00 Fair with Haze CLR 96.8 69.8 42% 103 29.9 0.0
31 14:35 SE 14 G 20 6.00 Fair with Haze CLR 98.6 71.6 42% 108 29.91 0.0
31 14:15 E 10 G 21 6.00 Fair with Haze CLR 98.6 71.6 42% 108 29.91 0.0
31 13:55 E 8 G 17 5.00 A Few Clouds with Haze FEW050 96.8 71.6 44% 105 29.92 0.0
31 13:35 E 10 G 17 5.00 A Few Clouds with Haze FEW050 95 73.4 50% 105 29.93 0.0
31 13:15 SE 9 5.00 Fair with Haze CLR 96.8 73.4 47% 107 29.95 0.0
31 12:55 SE 8 G 16 6.00 Fair with Haze CLR 93.2 73.4 53% 103 29.95 0.0
31 12:35 SE 10 6.00 Fair with Haze CLR 91.4 75.2 59% 103 29.96 0.0
31 12:15 E 6 5.00 Fair with Haze CLR 91.4 75.2 59% 103 29.97 0.0
31 11:55 E 10 5.00 A Few Clouds with Haze FEW029 89.6 75.2 63% 100 29.97 0.0
31 11:35 Vrbl 6 G 14 5.00 Mostly Cloudy with Haze BKN027 87.8 75.2 66% 98 29.98 0.0
31 11:15 E 8 G 14 5.00 Mostly Cloudy with Haze BKN024 BKN029 86 75.2 70% 95 29.98 0.0
31 10:55 S 8 5.00 Overcast with Haze OVC023 86 75.2 70% 95 29.98 0.0
31 10:35 SE 9 5.00 Overcast with Haze OVC022 84.2 75.2 74% 92 29.98 0.0
31 10:15 SE 8 5.00 Overcast with Haze OVC020 84.2 77 79% 94 29.98 0.0
31 09:55 SE 6 G 13 5.00 Overcast with Haze OVC021 82.4 77 84% 91 29.97 0.0
31 09:30 E 12 5.00 Overcast with Haze OVC021 80.6 77 89% 87 29.97 0.0
31 09:15 E 10 5.00 Overcast with Haze OVC022 80.6 77 89% 87 29.98 0.0
Date Time (cdt) Wind (mph) Vis. (mi.) Weather Sky Cond. Air Dwpt Max. Min. Relative Humidity Wind Chill (°F) Heat Index (°F) altimeter (in) sea level (mb) 1 hr 3 hr 6 hr
6 hour
Temperature (ºF) Pressure Precipitation (in)